sensor_id;sensor_type;location;lat;lon;timestamp;P1;durP1;ratioP1;P2;durP2;ratioP2
13002;SDS011;6566;57.702;11.984;2022-08-19T00:00:23;12.07;;;7.07;;
13002;SDS011;6566;57.702;11.984;2022-08-19T00:02:48;13.98;;;7.05;;
13002;SDS011;6566;57.702;11.984;2022-08-19T00:05:14;9.48;;;6.80;;
13002;SDS011;6566;57.702;11.984;2022-08-19T00:07:40;11.02;;;6.43;;
13002;SDS011;6566;57.702;11.984;2022-08-19T00:10:06;10.73;;;7.20;;
13002;SDS011;6566;57.702;11.984;2022-08-19T00:12:32;10.18;;;7.20;;
13002;SDS011;6566;57.702;11.984;2022-08-19T00:14:57;10.48;;;6.75;;
13002;SDS011;6566;57.702;11.984;2022-08-19T00:17:23;12.53;;;6.90;;
13002;SDS011;6566;57.702;11.984;2022-08-19T00:19:48;15.33;;;7.57;;
13002;SDS011;6566;57.702;11.984;2022-08-19T00:22:13;11.57;;;7.40;;
13002;SDS011;6566;57.702;11.984;2022-08-19T00:24:38;12.48;;;8.10;;
13002;SDS011;6566;57.702;11.984;2022-08-19T00:27:05;10.27;;;7.43;;
13002;SDS011;6566;57.702;11.984;2022-08-19T00:29:31;13.83;;;7.40;;
13002;SDS011;6566;57.702;11.984;2022-08-19T00:31:56;11.33;;;7.50;;
13002;SDS011;6566;57.702;11.984;2022-08-19T00:34:23;12.57;;;8.02;;
13002;SDS011;6566;57.702;11.984;2022-08-19T00:36:49;15.60;;;8.30;;
13002;SDS011;6566;57.702;11.984;2022-08-19T00:39:15;16.33;;;8.43;;
13002;SDS011;6566;57.702;11.984;2022-08-19T00:41:41;13.13;;;8.48;;
13002;SDS011;6566;57.702;11.984;2022-08-19T00:46:36;15.48;;;8.45;;
13002;SDS011;6566;57.702;11.984;2022-08-19T00:49:16;15.82;;;9.02;;
13002;SDS011;6566;57.702;11.984;2022-08-19T00:51:45;15.43;;;9.52;;
13002;SDS011;6566;57.702;11.984;2022-08-19T00:54:11;13.60;;;8.43;;
13002;SDS011;6566;57.702;11.984;2022-08-19T00:56:37;14.65;;;8.60;;
13002;SDS011;6566;57.702;11.984;2022-08-19T00:59:03;16.30;;;8.98;;
13002;SDS011;6566;57.702;11.984;2022-08-19T01:01:33;15.27;;;9.50;;
13002;SDS011;6566;57.702;11.984;2022-08-19T01:03:58;18.00;;;9.00;;
13002;SDS011;6566;57.702;11.984;2022-08-19T01:06:24;17.53;;;10.20;;
13002;SDS011;6566;57.702;11.984;2022-08-19T01:08:50;16.10;;;8.95;;
13002;SDS011;6566;57.702;11.984;2022-08-19T01:11:15;24.53;;;9.67;;
13002;SDS011;6566;57.702;11.984;2022-08-19T01:13:40;21.23;;;10.30;;
13002;SDS011;6566;57.702;11.984;2022-08-19T01:16:07;15.33;;;9.23;;
13002;SDS011;6566;57.702;11.984;2022-08-19T01:18:35;17.10;;;9.23;;
13002;SDS011;6566;57.702;11.984;2022-08-19T01:21:02;17.13;;;9.25;;
13002;SDS011;6566;57.702;11.984;2022-08-19T01:23:31;15.15;;;8.32;;
13002;SDS011;6566;57.702;11.984;2022-08-19T01:26:19;15.73;;;8.27;;
13002;SDS011;6566;57.702;11.984;2022-08-19T01:28:46;14.63;;;8.38;;
13002;SDS011;6566;57.702;11.984;2022-08-19T01:31:16;15.18;;;8.88;;
13002;SDS011;6566;57.702;11.984;2022-08-19T01:33:41;18.35;;;9.32;;
13002;SDS011;6566;57.702;11.984;2022-08-19T01:36:08;13.10;;;9.30;;
13002;SDS011;6566;57.702;11.984;2022-08-19T01:38:34;15.68;;;9.25;;
13002;SDS011;6566;57.702;11.984;2022-08-19T01:41:00;16.70;;;8.85;;
13002;SDS011;6566;57.702;11.984;2022-08-19T01:43:26;15.30;;;9.38;;
13002;SDS011;6566;57.702;11.984;2022-08-19T01:45:51;14.45;;;8.88;;
13002;SDS011;6566;57.702;11.984;2022-08-19T01:48:17;17.10;;;9.30;;
13002;SDS011;6566;57.702;11.984;2022-08-19T01:50:42;20.93;;;10.80;;
13002;SDS011;6566;57.702;11.984;2022-08-19T01:53:09;15.68;;;9.65;;
13002;SDS011;6566;57.702;11.984;2022-08-19T01:55:36;19.80;;;9.88;;
13002;SDS011;6566;57.702;11.984;2022-08-19T01:58:02;19.63;;;8.85;;
13002;SDS011;6566;57.702;11.984;2022-08-19T02:00:30;11.25;;;8.35;;
13002;SDS011;6566;57.702;11.984;2022-08-19T02:02:56;12.27;;;8.70;;
13002;SDS011;6566;57.702;11.984;2022-08-19T02:05:21;18.17;;;9.00;;
13002;SDS011;6566;57.702;11.984;2022-08-19T02:07:47;16.30;;;9.13;;
13002;SDS011;6566;57.702;11.984;2022-08-19T02:10:13;16.13;;;8.52;;
13002;SDS011;6566;57.702;11.984;2022-08-19T02:12:39;11.60;;;8.00;;
13002;SDS011;6566;57.702;11.984;2022-08-19T02:15:04;14.37;;;8.53;;
13002;SDS011;6566;57.702;11.984;2022-08-19T02:17:31;12.25;;;8.27;;
13002;SDS011;6566;57.702;11.984;2022-08-19T02:19:56;12.32;;;8.25;;
13002;SDS011;6566;57.702;11.984;2022-08-19T02:22:22;14.43;;;7.97;;
13002;SDS011;6566;57.702;11.984;2022-08-19T02:24:47;13.95;;;7.88;;
13002;SDS011;6566;57.702;11.984;2022-08-19T02:27:13;12.05;;;7.30;;
13002;SDS011;6566;57.702;11.984;2022-08-19T02:29:38;12.07;;;7.65;;
13002;SDS011;6566;57.702;11.984;2022-08-19T02:32:03;13.83;;;7.60;;
13002;SDS011;6566;57.702;11.984;2022-08-19T02:34:29;12.05;;;7.80;;
13002;SDS011;6566;57.702;11.984;2022-08-19T02:36:54;11.73;;;7.35;;
13002;SDS011;6566;57.702;11.984;2022-08-19T02:39:19;11.40;;;7.07;;
13002;SDS011;6566;57.702;11.984;2022-08-19T02:41:44;16.13;;;7.93;;
13002;SDS011;6566;57.702;11.984;2022-08-19T02:44:10;11.93;;;7.05;;
13002;SDS011;6566;57.702;11.984;2022-08-19T02:46:35;15.57;;;7.47;;
13002;SDS011;6566;57.702;11.984;2022-08-19T02:49:03;15.95;;;7.85;;
13002;SDS011;6566;57.702;11.984;2022-08-19T02:51:33;13.90;;;7.00;;
13002;SDS011;6566;57.702;11.984;2022-08-19T02:53:58;13.30;;;6.88;;
13002;SDS011;6566;57.702;11.984;2022-08-19T02:56:25;11.77;;;6.70;;
13002;SDS011;6566;57.702;11.984;2022-08-19T02:58:51;13.02;;;7.00;;
13002;SDS011;6566;57.702;11.984;2022-08-19T03:01:21;10.63;;;6.43;;
13002;SDS011;6566;57.702;11.984;2022-08-19T03:03:46;12.35;;;7.05;;
13002;SDS011;6566;57.702;11.984;2022-08-19T03:06:12;12.03;;;6.40;;
13002;SDS011;6566;57.702;11.984;2022-08-19T03:08:38;8.35;;;5.93;;
13002;SDS011;6566;57.702;11.984;2022-08-19T03:11:04;10.50;;;6.20;;
13002;SDS011;6566;57.702;11.984;2022-08-19T03:13:29;12.55;;;6.22;;
13002;SDS011;6566;57.702;11.984;2022-08-19T03:15:55;12.20;;;6.20;;
13002;SDS011;6566;57.702;11.984;2022-08-19T03:18:20;12.77;;;6.20;;
13002;SDS011;6566;57.702;11.984;2022-08-19T03:20:46;9.85;;;5.95;;
13002;SDS011;6566;57.702;11.984;2022-08-19T03:23:12;9.98;;;6.18;;
13002;SDS011;6566;57.702;11.984;2022-08-19T03:25:39;14.90;;;6.95;;
13002;SDS011;6566;57.702;11.984;2022-08-19T03:28:06;11.38;;;6.50;;
13002;SDS011;6566;57.702;11.984;2022-08-19T03:30:32;11.88;;;6.82;;
13002;SDS011;6566;57.702;11.984;2022-08-19T03:32:57;10.30;;;5.85;;
13002;SDS011;6566;57.702;11.984;2022-08-19T03:35:22;10.53;;;6.87;;
13002;SDS011;6566;57.702;11.984;2022-08-19T03:37:47;11.53;;;6.23;;
13002;SDS011;6566;57.702;11.984;2022-08-19T03:40:13;12.20;;;6.70;;
13002;SDS011;6566;57.702;11.984;2022-08-19T03:42:38;12.70;;;6.33;;
13002;SDS011;6566;57.702;11.984;2022-08-19T03:45:03;12.77;;;6.03;;
13002;SDS011;6566;57.702;11.984;2022-08-19T03:47:29;9.80;;;7.03;;
13002;SDS011;6566;57.702;11.984;2022-08-19T03:49:55;9.38;;;5.88;;
13002;SDS011;6566;57.702;11.984;2022-08-19T03:52:20;8.63;;;6.50;;
13002;SDS011;6566;57.702;11.984;2022-08-19T03:54:45;13.10;;;7.17;;
13002;SDS011;6566;57.702;11.984;2022-08-19T03:57:10;10.35;;;6.68;;
13002;SDS011;6566;57.702;11.984;2022-08-19T03:59:36;12.68;;;7.60;;
13002;SDS011;6566;57.702;11.984;2022-08-19T04:02:03;10.00;;;7.20;;
13002;SDS011;6566;57.702;11.984;2022-08-19T04:04:33;10.05;;;6.78;;
13002;SDS011;6566;57.702;11.984;2022-08-19T04:06:58;12.20;;;7.63;;
13002;SDS011;6566;57.702;11.984;2022-08-19T04:09:24;9.60;;;7.32;;
13002;SDS011;6566;57.702;11.984;2022-08-19T04:11:50;14.32;;;8.07;;
13002;SDS011;6566;57.702;11.984;2022-08-19T04:14:19;10.68;;;7.72;;
13002;SDS011;6566;57.702;11.984;2022-08-19T04:16:46;10.43;;;7.97;;
13002;SDS011;6566;57.702;11.984;2022-08-19T04:19:12;10.85;;;7.70;;
13002;SDS011;6566;57.702;11.984;2022-08-19T04:21:37;12.77;;;8.90;;
13002;SDS011;6566;57.702;11.984;2022-08-19T04:24:03;13.30;;;9.27;;
13002;SDS011;6566;57.702;11.984;2022-08-19T04:26:29;11.18;;;8.30;;
13002;SDS011;6566;57.702;11.984;2022-08-19T04:28:57;14.20;;;7.78;;
13002;SDS011;6566;57.702;11.984;2022-08-19T04:31:23;14.77;;;8.98;;
13002;SDS011;6566;57.702;11.984;2022-08-19T04:33:51;15.73;;;8.60;;
13002;SDS011;6566;57.702;11.984;2022-08-19T04:36:17;11.60;;;9.13;;
13002;SDS011;6566;57.702;11.984;2022-08-19T04:38:45;13.45;;;10.02;;
13002;SDS011;6566;57.702;11.984;2022-08-19T04:41:10;18.17;;;10.85;;
13002;SDS011;6566;57.702;11.984;2022-08-19T04:43:54;15.35;;;10.55;;
13002;SDS011;6566;57.702;11.984;2022-08-19T04:46:20;15.07;;;10.48;;
13002;SDS011;6566;57.702;11.984;2022-08-19T04:48:45;15.83;;;11.20;;
13002;SDS011;6566;57.702;11.984;2022-08-19T04:51:11;17.15;;;11.98;;
13002;SDS011;6566;57.702;11.984;2022-08-19T04:53:38;19.13;;;13.60;;
13002;SDS011;6566;57.702;11.984;2022-08-19T04:56:05;19.23;;;14.18;;
13002;SDS011;6566;57.702;11.984;2022-08-19T04:58:32;19.48;;;13.20;;
13002;SDS011;6566;57.702;11.984;2022-08-19T05:00:57;20.88;;;13.15;;
13002;SDS011;6566;57.702;11.984;2022-08-19T05:03:25;17.98;;;12.52;;
13002;SDS011;6566;57.702;11.984;2022-08-19T05:05:51;20.40;;;14.55;;
13002;SDS011;6566;57.702;11.984;2022-08-19T05:08:18;21.58;;;13.88;;
13002;SDS011;6566;57.702;11.984;2022-08-19T05:10:45;16.83;;;13.07;;
13002;SDS011;6566;57.702;11.984;2022-08-19T05:13:10;19.20;;;12.82;;
13002;SDS011;6566;57.702;11.984;2022-08-19T05:15:35;18.15;;;12.65;;
13002;SDS011;6566;57.702;11.984;2022-08-19T05:18:01;16.58;;;12.20;;
13002;SDS011;6566;57.702;11.984;2022-08-19T05:20:45;19.98;;;13.20;;
13002;SDS011;6566;57.702;11.984;2022-08-19T05:23:29;17.83;;;14.63;;
13002;SDS011;6566;57.702;11.984;2022-08-19T05:25:54;21.17;;;14.05;;
13002;SDS011;6566;57.702;11.984;2022-08-19T05:28:19;19.33;;;13.47;;
13002;SDS011;6566;57.702;11.984;2022-08-19T05:30:45;19.75;;;14.40;;
13002;SDS011;6566;57.702;11.984;2022-08-19T05:33:10;17.55;;;12.98;;
13002;SDS011;6566;57.702;11.984;2022-08-19T05:35:37;15.05;;;12.48;;
13002;SDS011;6566;57.702;11.984;2022-08-19T05:38:02;16.15;;;12.65;;
13002;SDS011;6566;57.702;11.984;2022-08-19T05:40:28;16.67;;;12.35;;
13002;SDS011;6566;57.702;11.984;2022-08-19T05:42:53;16.98;;;12.73;;
13002;SDS011;6566;57.702;11.984;2022-08-19T05:45:18;15.70;;;12.50;;
13002;SDS011;6566;57.702;11.984;2022-08-19T05:47:48;15.52;;;11.38;;
13002;SDS011;6566;57.702;11.984;2022-08-19T05:50:13;14.48;;;11.27;;
13002;SDS011;6566;57.702;11.984;2022-08-19T05:52:39;15.47;;;12.00;;
13002;SDS011;6566;57.702;11.984;2022-08-19T05:55:04;15.83;;;12.57;;
13002;SDS011;6566;57.702;11.984;2022-08-19T05:57:30;18.58;;;12.20;;
13002;SDS011;6566;57.702;11.984;2022-08-19T05:59:55;15.47;;;11.70;;
13002;SDS011;6566;57.702;11.984;2022-08-19T06:02:22;15.13;;;10.90;;
13002;SDS011;6566;57.702;11.984;2022-08-19T06:04:47;13.73;;;10.50;;
13002;SDS011;6566;57.702;11.984;2022-08-19T06:07:12;13.50;;;11.67;;
13002;SDS011;6566;57.702;11.984;2022-08-19T06:09:37;14.00;;;10.35;;
13002;SDS011;6566;57.702;11.984;2022-08-19T06:12:03;12.77;;;10.48;;
13002;SDS011;6566;57.702;11.984;2022-08-19T06:14:32;12.20;;;10.25;;
13002;SDS011;6566;57.702;11.984;2022-08-19T06:16:58;17.52;;;12.10;;
13002;SDS011;6566;57.702;11.984;2022-08-19T06:19:26;15.98;;;12.52;;
13002;SDS011;6566;57.702;11.984;2022-08-19T06:21:53;14.73;;;11.68;;
13002;SDS011;6566;57.702;11.984;2022-08-19T06:24:23;11.90;;;10.57;;
13002;SDS011;6566;57.702;11.984;2022-08-19T06:26:49;12.23;;;10.93;;
13002;SDS011;6566;57.702;11.984;2022-08-19T06:29:16;12.93;;;10.40;;
13002;SDS011;6566;57.702;11.984;2022-08-19T06:31:43;11.68;;;10.48;;
13002;SDS011;6566;57.702;11.984;2022-08-19T06:34:09;11.60;;;10.00;;
13002;SDS011;6566;57.702;11.984;2022-08-19T06:36:35;13.82;;;10.13;;
13002;SDS011;6566;57.702;11.984;2022-08-19T06:39:06;12.85;;;9.27;;
13002;SDS011;6566;57.702;11.984;2022-08-19T06:41:34;11.35;;;8.60;;
13002;SDS011;6566;57.702;11.984;2022-08-19T06:43:59;13.50;;;8.52;;
13002;SDS011;6566;57.702;11.984;2022-08-19T06:46:25;9.70;;;8.47;;
13002;SDS011;6566;57.702;11.984;2022-08-19T06:48:51;9.43;;;8.18;;
13002;SDS011;6566;57.702;11.984;2022-08-19T06:51:18;10.65;;;8.98;;
13002;SDS011;6566;57.702;11.984;2022-08-19T06:53:47;10.35;;;9.10;;
13002;SDS011;6566;57.702;11.984;2022-08-19T06:56:13;10.20;;;9.15;;
13002;SDS011;6566;57.702;11.984;2022-08-19T06:58:39;11.60;;;9.13;;
13002;SDS011;6566;57.702;11.984;2022-08-19T07:01:04;11.35;;;8.73;;
13002;SDS011;6566;57.702;11.984;2022-08-19T07:03:30;12.77;;;9.50;;
13002;SDS011;6566;57.702;11.984;2022-08-19T07:05:56;10.40;;;8.55;;
13002;SDS011;6566;57.702;11.984;2022-08-19T07:08:21;13.13;;;9.18;;
13002;SDS011;6566;57.702;11.984;2022-08-19T07:10:46;11.00;;;8.73;;
13002;SDS011;6566;57.702;11.984;2022-08-19T07:13:13;9.85;;;8.65;;
13002;SDS011;6566;57.702;11.984;2022-08-19T07:15:38;8.43;;;7.63;;
13002;SDS011;6566;57.702;11.984;2022-08-19T07:18:03;8.63;;;7.57;;
13002;SDS011;6566;57.702;11.984;2022-08-19T07:20:28;9.02;;;7.97;;
13002;SDS011;6566;57.702;11.984;2022-08-19T07:22:54;9.40;;;7.43;;
13002;SDS011;6566;57.702;11.984;2022-08-19T07:25:19;8.80;;;7.90;;
13002;SDS011;6566;57.702;11.984;2022-08-19T07:27:48;8.23;;;7.43;;
13002;SDS011;6566;57.702;11.984;2022-08-19T07:30:13;9.35;;;7.22;;
13002;SDS011;6566;57.702;11.984;2022-08-19T07:32:39;7.97;;;7.20;;
13002;SDS011;6566;57.702;11.984;2022-08-19T07:35:04;7.57;;;6.95;;
13002;SDS011;6566;57.702;11.984;2022-08-19T07:37:31;7.10;;;6.45;;
13002;SDS011;6566;57.702;11.984;2022-08-19T07:39:56;7.40;;;6.77;;
13002;SDS011;6566;57.702;11.984;2022-08-19T07:42:21;7.38;;;6.70;;
13002;SDS011;6566;57.702;11.984;2022-08-19T07:44:46;8.07;;;7.38;;
13002;SDS011;6566;57.702;11.984;2022-08-19T07:47:12;8.02;;;7.32;;
13002;SDS011;6566;57.702;11.984;2022-08-19T07:49:38;8.43;;;7.55;;
13002;SDS011;6566;57.702;11.984;2022-08-19T07:52:07;8.02;;;7.20;;
13002;SDS011;6566;57.702;11.984;2022-08-19T07:54:33;8.50;;;7.65;;
13002;SDS011;6566;57.702;11.984;2022-08-19T07:56:59;10.38;;;7.20;;
13002;SDS011;6566;57.702;11.984;2022-08-19T07:59:24;7.68;;;6.97;;
13002;SDS011;6566;57.702;11.984;2022-08-19T08:01:50;9.02;;;8.23;;
13002;SDS011;6566;57.702;11.984;2022-08-19T08:04:16;8.45;;;7.65;;
13002;SDS011;6566;57.702;11.984;2022-08-19T08:07:00;8.57;;;7.75;;
13002;SDS011;6566;57.702;11.984;2022-08-19T08:09:44;10.48;;;8.07;;
13002;SDS011;6566;57.702;11.984;2022-08-19T08:12:10;7.93;;;7.23;;
13002;SDS011;6566;57.702;11.984;2022-08-19T08:14:41;8.60;;;7.65;;
13002;SDS011;6566;57.702;11.984;2022-08-19T08:17:07;7.85;;;7.15;;
13002;SDS011;6566;57.702;11.984;2022-08-19T08:19:33;9.43;;;7.70;;
13002;SDS011;6566;57.702;11.984;2022-08-19T08:21:59;8.00;;;7.18;;
13002;SDS011;6566;57.702;11.984;2022-08-19T08:24:25;7.85;;;7.15;;
13002;SDS011;6566;57.702;11.984;2022-08-19T08:26:51;8.20;;;7.50;;
13002;SDS011;6566;57.702;11.984;2022-08-19T08:29:16;9.33;;;8.07;;
13002;SDS011;6566;57.702;11.984;2022-08-19T08:31:42;9.40;;;6.53;;
13002;SDS011;6566;57.702;11.984;2022-08-19T08:34:07;7.03;;;6.32;;
13002;SDS011;6566;57.702;11.984;2022-08-19T08:36:35;8.25;;;7.45;;
13002;SDS011;6566;57.702;11.984;2022-08-19T08:39:01;7.50;;;6.72;;
13002;SDS011;6566;57.702;11.984;2022-08-19T08:43:53;9.02;;;7.40;;
13002;SDS011;6566;57.702;11.984;2022-08-19T08:46:24;7.72;;;7.00;;
13002;SDS011;6566;57.702;11.984;2022-08-19T08:51:38;10.38;;;7.80;;
13002;SDS011;6566;57.702;11.984;2022-08-19T08:54:07;9.32;;;7.45;;
13002;SDS011;6566;57.702;11.984;2022-08-19T08:56:33;9.20;;;7.70;;
13002;SDS011;6566;57.702;11.984;2022-08-19T08:59:05;8.23;;;7.53;;
13002;SDS011;6566;57.702;11.984;2022-08-19T09:01:32;10.05;;;7.65;;
13002;SDS011;6566;57.702;11.984;2022-08-19T09:03:58;8.73;;;7.82;;
13002;SDS011;6566;57.702;11.984;2022-08-19T09:09:14;9.32;;;8.48;;
13002;SDS011;6566;57.702;11.984;2022-08-19T09:16:48;9.57;;;8.57;;
13002;SDS011;6566;57.702;11.984;2022-08-19T09:19:14;11.40;;;9.73;;
13002;SDS011;6566;57.702;11.984;2022-08-19T09:21:42;12.50;;;10.48;;
13002;SDS011;6566;57.702;11.984;2022-08-19T09:24:07;11.40;;;9.52;;
13002;SDS011;6566;57.702;11.984;2022-08-19T09:26:33;12.30;;;9.50;;
13002;SDS011;6566;57.702;11.984;2022-08-19T09:28:58;14.73;;;9.10;;
13002;SDS011;6566;57.702;11.984;2022-08-19T09:31:26;10.25;;;8.23;;
13002;SDS011;6566;57.702;11.984;2022-08-19T09:33:52;12.30;;;8.10;;
13002;SDS011;6566;57.702;11.984;2022-08-19T09:36:22;8.27;;;6.75;;
13002;SDS011;6566;57.702;11.984;2022-08-19T09:38:48;7.43;;;6.72;;
13002;SDS011;6566;57.702;11.984;2022-08-19T09:41:15;9.35;;;6.72;;
13002;SDS011;6566;57.702;11.984;2022-08-19T09:43:40;8.70;;;6.30;;
13002;SDS011;6566;57.702;11.984;2022-08-19T09:46:06;8.15;;;7.35;;
13002;SDS011;6566;57.702;11.984;2022-08-19T09:48:32;9.27;;;7.18;;
13002;SDS011;6566;57.702;11.984;2022-08-19T09:53:29;7.55;;;6.13;;
13002;SDS011;6566;57.702;11.984;2022-08-19T09:55:57;6.53;;;5.93;;
13002;SDS011;6566;57.702;11.984;2022-08-19T09:58:22;8.80;;;6.18;;
13002;SDS011;6566;57.702;11.984;2022-08-19T10:00:52;8.10;;;6.15;;
13002;SDS011;6566;57.702;11.984;2022-08-19T10:03:18;8.88;;;6.13;;
13002;SDS011;6566;57.702;11.984;2022-08-19T10:05:43;6.90;;;6.20;;
13002;SDS011;6566;57.702;11.984;2022-08-19T10:08:16;6.85;;;6.25;;
13002;SDS011;6566;57.702;11.984;2022-08-19T10:10:41;7.70;;;6.05;;
13002;SDS011;6566;57.702;11.984;2022-08-19T10:13:09;7.45;;;6.03;;
13002;SDS011;6566;57.702;11.984;2022-08-19T10:15:34;7.25;;;5.60;;
13002;SDS011;6566;57.702;11.984;2022-08-19T10:18:00;8.13;;;6.00;;
13002;SDS011;6566;57.702;11.984;2022-08-19T10:20:25;6.30;;;5.63;;
13002;SDS011;6566;57.702;11.984;2022-08-19T10:22:51;6.53;;;5.20;;
13002;SDS011;6566;57.702;11.984;2022-08-19T10:25:16;5.30;;;4.80;;
13002;SDS011;6566;57.702;11.984;2022-08-19T10:27:42;6.85;;;4.63;;
13002;SDS011;6566;57.702;11.984;2022-08-19T10:30:07;6.57;;;5.17;;
13002;SDS011;6566;57.702;11.984;2022-08-19T10:32:34;7.65;;;5.55;;
13002;SDS011;6566;57.702;11.984;2022-08-19T10:34:59;6.10;;;5.10;;
13002;SDS011;6566;57.702;11.984;2022-08-19T10:37:24;7.70;;;5.50;;
13002;SDS011;6566;57.702;11.984;2022-08-19T10:39:50;6.23;;;4.87;;
13002;SDS011;6566;57.702;11.984;2022-08-19T10:42:15;6.03;;;4.60;;
13002;SDS011;6566;57.702;11.984;2022-08-19T10:44:41;5.90;;;4.82;;
13002;SDS011;6566;57.702;11.984;2022-08-19T10:47:07;6.32;;;4.40;;
13002;SDS011;6566;57.702;11.984;2022-08-19T10:49:32;6.80;;;4.50;;
13002;SDS011;6566;57.702;11.984;2022-08-19T10:52:17;7.38;;;4.85;;
13002;SDS011;6566;57.702;11.984;2022-08-19T10:55:02;6.95;;;4.55;;
13002;SDS011;6566;57.702;11.984;2022-08-19T10:57:46;7.57;;;4.57;;
13002;SDS011;6566;57.702;11.984;2022-08-19T11:00:11;4.60;;;3.35;;
13002;SDS011;6566;57.702;11.984;2022-08-19T11:02:38;5.10;;;3.55;;
13002;SDS011;6566;57.702;11.984;2022-08-19T11:05:03;3.90;;;3.50;;
13002;SDS011;6566;57.702;11.984;2022-08-19T11:07:28;3.97;;;3.13;;
13002;SDS011;6566;57.702;11.984;2022-08-19T11:09:53;5.43;;;4.13;;
13002;SDS011;6566;57.702;11.984;2022-08-19T11:12:19;4.00;;;3.55;;
13002;SDS011;6566;57.702;11.984;2022-08-19T11:14:44;5.40;;;2.92;;
13002;SDS011;6566;57.702;11.984;2022-08-19T11:17:09;4.17;;;3.00;;
13002;SDS011;6566;57.702;11.984;2022-08-19T11:19:39;4.35;;;3.20;;
13002;SDS011;6566;57.702;11.984;2022-08-19T11:22:06;4.15;;;3.10;;
13002;SDS011;6566;57.702;11.984;2022-08-19T11:24:34;3.97;;;3.15;;
13002;SDS011;6566;57.702;11.984;2022-08-19T11:27:01;7.03;;;3.38;;
13002;SDS011;6566;57.702;11.984;2022-08-19T11:29:29;5.20;;;4.07;;
13002;SDS011;6566;57.702;11.984;2022-08-19T11:31:54;8.53;;;4.90;;
13002;SDS011;6566;57.702;11.984;2022-08-19T11:34:25;6.18;;;4.82;;
13002;SDS011;6566;57.702;11.984;2022-08-19T11:36:51;7.35;;;4.35;;
13002;SDS011;6566;57.702;11.984;2022-08-19T11:39:18;5.47;;;3.83;;
13002;SDS011;6566;57.702;11.984;2022-08-19T11:41:44;5.32;;;4.15;;
13002;SDS011;6566;57.702;11.984;2022-08-19T11:44:09;5.50;;;3.87;;
13002;SDS011;6566;57.702;11.984;2022-08-19T11:46:35;4.80;;;4.27;;
13002;SDS011;6566;57.702;11.984;2022-08-19T11:49:00;6.30;;;3.90;;
13002;SDS011;6566;57.702;11.984;2022-08-19T11:51:27;10.20;;;4.72;;
13002;SDS011;6566;57.702;11.984;2022-08-19T11:53:53;7.43;;;5.55;;
13002;SDS011;6566;57.702;11.984;2022-08-19T11:56:19;5.68;;;5.18;;
13002;SDS011;6566;57.702;11.984;2022-08-19T11:58:45;5.80;;;5.15;;
13002;SDS011;6566;57.702;11.984;2022-08-19T12:01:11;5.30;;;3.58;;
13002;SDS011;6566;57.702;11.984;2022-08-19T12:03:37;6.40;;;3.42;;
13002;SDS011;6566;57.702;11.984;2022-08-19T12:06:09;4.68;;;2.92;;
13002;SDS011;6566;57.702;11.984;2022-08-19T12:08:34;5.07;;;2.88;;
13002;SDS011;6566;57.702;11.984;2022-08-19T12:10:59;5.27;;;3.03;;
13002;SDS011;6566;57.702;11.984;2022-08-19T12:13:28;7.15;;;3.28;;
13002;SDS011;6566;57.702;11.984;2022-08-19T12:15:54;4.60;;;3.10;;
13002;SDS011;6566;57.702;11.984;2022-08-19T12:18:20;6.67;;;3.50;;
13002;SDS011;6566;57.702;11.984;2022-08-19T12:20:45;3.77;;;3.00;;
13002;SDS011;6566;57.702;11.984;2022-08-19T12:23:11;6.05;;;3.50;;
13002;SDS011;6566;57.702;11.984;2022-08-19T12:25:36;5.35;;;3.17;;
13002;SDS011;6566;57.702;11.984;2022-08-19T12:28:02;5.53;;;3.05;;
13002;SDS011;6566;57.702;11.984;2022-08-19T12:30:27;5.40;;;3.30;;
13002;SDS011;6566;57.702;11.984;2022-08-19T12:32:53;5.23;;;2.83;;
13002;SDS011;6566;57.702;11.984;2022-08-19T12:35:18;5.03;;;2.75;;
13002;SDS011;6566;57.702;11.984;2022-08-19T12:37:45;5.35;;;3.60;;
13002;SDS011;6566;57.702;11.984;2022-08-19T12:40:10;3.83;;;2.65;;
13002;SDS011;6566;57.702;11.984;2022-08-19T12:42:37;3.67;;;2.95;;
13002;SDS011;6566;57.702;11.984;2022-08-19T12:45:02;3.67;;;2.58;;
13002;SDS011;6566;57.702;11.984;2022-08-19T12:47:28;4.25;;;2.35;;
13002;SDS011;6566;57.702;11.984;2022-08-19T12:49:53;5.90;;;3.00;;
13002;SDS011;6566;57.702;11.984;2022-08-19T12:52:19;5.20;;;3.15;;
13002;SDS011;6566;57.702;11.984;2022-08-19T12:54:46;4.57;;;2.53;;
13002;SDS011;6566;57.702;11.984;2022-08-19T12:57:11;5.20;;;2.70;;
13002;SDS011;6566;57.702;11.984;2022-08-19T12:59:37;4.20;;;3.10;;
13002;SDS011;6566;57.702;11.984;2022-08-19T13:02:05;4.38;;;2.63;;
13002;SDS011;6566;57.702;11.984;2022-08-19T13:04:32;5.07;;;2.92;;
13002;SDS011;6566;57.702;11.984;2022-08-19T13:06:57;5.80;;;2.85;;
13002;SDS011;6566;57.702;11.984;2022-08-19T13:09:23;6.68;;;2.80;;
13002;SDS011;6566;57.702;11.984;2022-08-19T13:11:48;3.22;;;2.58;;
13002;SDS011;6566;57.702;11.984;2022-08-19T13:14:14;5.00;;;2.80;;
13002;SDS011;6566;57.702;11.984;2022-08-19T13:16:39;3.30;;;2.60;;
13002;SDS011;6566;57.702;11.984;2022-08-19T13:19:04;3.55;;;2.40;;
13002;SDS011;6566;57.702;11.984;2022-08-19T13:21:30;3.25;;;2.60;;
13002;SDS011;6566;57.702;11.984;2022-08-19T13:23:55;5.53;;;2.30;;
13002;SDS011;6566;57.702;11.984;2022-08-19T13:26:21;4.10;;;2.28;;
13002;SDS011;6566;57.702;11.984;2022-08-19T13:28:46;5.57;;;2.47;;
13002;SDS011;6566;57.702;11.984;2022-08-19T13:31:31;4.45;;;2.40;;
13002;SDS011;6566;57.702;11.984;2022-08-19T13:34:16;4.10;;;2.30;;
13002;SDS011;6566;57.702;11.984;2022-08-19T13:36:42;2.78;;;1.90;;
13002;SDS011;6566;57.702;11.984;2022-08-19T13:39:07;3.70;;;2.40;;
13002;SDS011;6566;57.702;11.984;2022-08-19T13:41:33;3.45;;;2.30;;
13002;SDS011;6566;57.702;11.984;2022-08-19T13:43:59;4.10;;;2.30;;
13002;SDS011;6566;57.702;11.984;2022-08-19T13:46:24;3.08;;;2.13;;
13002;SDS011;6566;57.702;11.984;2022-08-19T13:48:49;4.07;;;1.83;;
13002;SDS011;6566;57.702;11.984;2022-08-19T13:51:16;3.50;;;1.83;;
13002;SDS011;6566;57.702;11.984;2022-08-19T13:53:42;4.85;;;1.92;;
13002;SDS011;6566;57.702;11.984;2022-08-19T13:56:08;2.80;;;1.80;;
13002;SDS011;6566;57.702;11.984;2022-08-19T13:58:34;4.50;;;2.92;;
13002;SDS011;6566;57.702;11.984;2022-08-19T14:01:00;3.60;;;2.30;;
13002;SDS011;6566;57.702;11.984;2022-08-19T14:03:25;4.67;;;2.20;;
13002;SDS011;6566;57.702;11.984;2022-08-19T14:05:50;3.97;;;2.13;;
13002;SDS011;6566;57.702;11.984;2022-08-19T14:08:16;3.53;;;2.40;;
13002;SDS011;6566;57.702;11.984;2022-08-19T14:10:42;3.65;;;2.17;;
13002;SDS011;6566;57.702;11.984;2022-08-19T14:13:09;4.18;;;1.95;;
13002;SDS011;6566;57.702;11.984;2022-08-19T14:15:34;3.17;;;2.20;;
13002;SDS011;6566;57.702;11.984;2022-08-19T14:17:59;3.37;;;1.87;;
13002;SDS011;6566;57.702;11.984;2022-08-19T14:20:25;3.03;;;1.60;;
13002;SDS011;6566;57.702;11.984;2022-08-19T14:22:50;4.75;;;1.50;;
13002;SDS011;6566;57.702;11.984;2022-08-19T14:25:17;3.95;;;1.77;;
13002;SDS011;6566;57.702;11.984;2022-08-19T14:27:43;2.25;;;1.70;;
13002;SDS011;6566;57.702;11.984;2022-08-19T14:30:09;4.20;;;1.73;;
13002;SDS011;6566;57.702;11.984;2022-08-19T14:32:36;5.00;;;1.77;;
13002;SDS011;6566;57.702;11.984;2022-08-19T14:35:01;4.03;;;1.50;;
13002;SDS011;6566;57.702;11.984;2022-08-19T14:37:26;5.10;;;1.70;;
13002;SDS011;6566;57.702;11.984;2022-08-19T14:39:51;4.17;;;1.80;;
13002;SDS011;6566;57.702;11.984;2022-08-19T14:42:17;3.70;;;1.98;;
13002;SDS011;6566;57.702;11.984;2022-08-19T14:44:43;2.90;;;1.60;;
13002;SDS011;6566;57.702;11.984;2022-08-19T14:47:08;2.53;;;1.60;;
13002;SDS011;6566;57.702;11.984;2022-08-19T14:49:34;3.13;;;1.60;;
13002;SDS011;6566;57.702;11.984;2022-08-19T14:51:59;3.13;;;1.33;;